createdAt,value
2022-10-25T00:01:32.217Z,22.16
2022-10-25T00:04:02.288Z,21.92
2022-10-25T00:06:28.972Z,22.08
2022-10-25T00:08:57.336Z,21.84
2022-10-25T00:11:29.198Z,22.05
2022-10-25T00:13:59.233Z,21.69
2022-10-25T00:16:33.167Z,21.89
2022-10-25T00:18:59.744Z,21.58
2022-10-25T00:21:29.049Z,21.85
2022-10-25T00:23:55.699Z,20.47
2022-10-25T00:26:22.608Z,21.84
2022-10-25T00:28:49.386Z,21.87
2022-10-25T00:31:17.299Z,21.77
2022-10-25T00:33:44.997Z,21.72
2022-10-25T00:36:17.365Z,21.51
2022-10-25T00:38:46.370Z,21.32
2022-10-25T00:41:15.220Z,20.81
2022-10-25T00:43:51.888Z,21.67
2022-10-25T00:46:18.419Z,21.72
2022-10-25T00:48:56.453Z,21.49
2022-10-25T00:51:29.660Z,21.28
2022-10-25T00:53:56.706Z,21.63
2022-10-25T00:56:29.338Z,21.45
2022-10-25T00:59:01.214Z,21.96
2022-10-25T01:01:28.395Z,21.97
2022-10-25T01:03:58.113Z,21.62
2022-10-25T01:06:32.074Z,22.07
2022-10-25T01:08:59.803Z,22.23
2022-10-25T01:11:26.416Z,22.18
2022-10-25T01:13:53.977Z,21.95
2022-10-25T01:16:37.857Z,21.11
2022-10-25T01:19:36.344Z,22.35
2022-10-25T01:22:20.787Z,22.58
2022-10-25T01:25:02.759Z,22.64
2022-10-25T01:27:44.233Z,22.58
2022-10-25T01:30:24.283Z,22.19
2022-10-25T01:33:12.600Z,22.81
2022-10-25T01:35:52.938Z,22.37
2022-10-25T01:38:35.274Z,22.72
2022-10-25T01:41:04.915Z,22.51
2022-10-25T01:44:04.023Z,22.88
2022-10-25T01:46:53.901Z,22.68
2022-10-25T01:49:31.960Z,22.75
2022-10-25T01:52:00.516Z,22.82
2022-10-25T01:54:27.608Z,22.86
2022-10-25T01:57:16.040Z,22.53
2022-10-25T02:00:21.209Z,22.39
2022-10-25T02:02:50.570Z,22.68
2022-10-25T02:05:48.476Z,22.65
2022-10-25T02:08:37.097Z,22.44
2022-10-25T02:11:06.803Z,22.50
2022-10-25T02:14:01.839Z,22.48
2022-10-25T02:16:41.044Z,21.72
2022-10-25T02:19:14.822Z,22.64
2022-10-25T02:21:46.102Z,22.35
2022-10-25T02:24:20.628Z,22.01
2022-10-25T02:29:21.276Z,22.29
2022-10-25T02:31:51.030Z,22.48
2022-10-25T02:34:19.279Z,22.60
2022-10-25T02:36:50.448Z,22.49
2022-10-25T02:39:21.834Z,22.49
2022-10-25T02:41:48.572Z,22.53
2022-10-25T02:44:15.254Z,22.34
2022-10-25T02:46:42.237Z,22.50
2022-10-25T02:49:15.932Z,22.54
2022-10-25T02:51:42.686Z,22.61
2022-10-25T02:54:09.305Z,22.48
2022-10-25T02:56:38.600Z,22.13
2022-10-25T02:59:05.397Z,22.07
2022-10-25T03:01:35.231Z,22.45
2022-10-25T03:04:02.189Z,21.70
2022-10-25T03:06:30.917Z,22.39
2022-10-25T03:09:00.507Z,22.28
2022-10-25T03:11:30.555Z,22.35
2022-10-25T03:13:58.539Z,22.30
2022-10-25T03:16:25.456Z,22.27
2022-10-25T03:18:52.055Z,22.29
2022-10-25T03:21:19.049Z,22.12
2022-10-25T03:23:49.852Z,22.04
2022-10-25T03:26:16.502Z,22.29
2022-10-25T03:28:45.572Z,22.25
2022-10-25T03:31:14.028Z,22.22
2022-10-25T03:33:42.705Z,21.93
2022-10-25T03:36:10.067Z,22.18
2022-10-25T03:38:39.011Z,22.03
2022-10-25T03:41:07.692Z,22.05
2022-10-25T03:43:43.619Z,22.08
2022-10-25T03:46:16.256Z,22.09
2022-10-25T03:48:43.504Z,22.00
2022-10-25T03:51:10.207Z,21.83
2022-10-25T03:53:36.867Z,21.84
2022-10-25T03:56:22.436Z,22.12
2022-10-25T03:59:03.765Z,22.05
2022-10-25T04:01:36.896Z,21.07
2022-10-25T04:04:22.597Z,21.77
2022-10-25T04:07:25.687Z,21.49
2022-10-25T04:10:07.678Z,20.97
2022-10-25T04:13:10.105Z,20.92
2022-10-25T04:15:47.702Z,21.72
2022-10-25T04:18:50.952Z,21.71
2022-10-25T04:27:36.692Z,20.85
2022-10-25T04:30:51.142Z,21.54
2022-10-25T04:33:56.051Z,20.14
2022-10-25T04:36:49.401Z,20.16
2022-10-25T04:39:34.250Z,21.48
2022-10-25T04:42:11.248Z,21.49
2022-10-25T04:44:51.131Z,21.47
2022-10-25T04:47:31.777Z,21.48
2022-10-25T04:50:22.450Z,20.96
2022-10-25T04:53:10.931Z,21.23
2022-10-25T04:56:04.630Z,21.38
2022-10-25T04:58:40.352Z,21.32
2022-10-25T05:01:32.526Z,21.31
2022-10-25T05:04:04.234Z,21.28
2022-10-25T05:06:35.090Z,21.25
2022-10-25T05:09:10.540Z,20.96
2022-10-25T05:11:49.899Z,20.22
2022-10-25T05:14:34.492Z,20.48
2022-10-25T05:17:11.223Z,21.11
2022-10-25T05:19:56.355Z,21.08
2022-10-25T05:22:44.000Z,19.74
2022-10-25T05:25:34.046Z,20.05
2022-10-25T05:28:14.858Z,20.97
2022-10-25T05:30:56.698Z,20.94
2022-10-25T05:33:29.983Z,21.00
2022-10-25T05:39:09.430Z,20.35
2022-10-25T05:44:41.138Z,19.56
2022-10-25T05:47:16.932Z,19.95
2022-10-25T05:50:07.239Z,19.93
2022-10-25T05:52:49.843Z,19.97
2022-10-25T05:55:24.513Z,20.47
2022-10-25T05:58:12.616Z,20.94
2022-10-25T06:00:39.886Z,20.83
2022-10-25T06:03:41.741Z,20.70
2022-10-25T06:06:42.872Z,20.53
2022-10-25T06:09:36.202Z,20.59
2022-10-25T06:12:21.117Z,20.03
2022-10-25T06:14:57.572Z,18.92
2022-10-25T06:17:42.404Z,20.35
2022-10-25T06:20:23.731Z,18.95
2022-10-25T06:23:40.578Z,19.97
2022-10-25T06:26:37.323Z,19.46
2022-10-25T06:29:40.332Z,20.00
2022-10-25T06:38:04.437Z,19.87
2022-10-25T06:41:09.217Z,19.91
2022-10-25T06:43:44.502Z,19.03
2022-10-25T06:46:36.085Z,19.03
2022-10-25T06:49:10.401Z,19.29
2022-10-25T06:51:48.914Z,19.83
2022-10-25T06:54:16.963Z,19.62
2022-10-25T06:56:48.643Z,19.57
2022-10-25T06:59:19.542Z,19.44
2022-10-25T07:01:51.180Z,19.54
2022-10-25T07:04:24.092Z,19.17
2022-10-25T07:06:55.198Z,19.87
2022-10-25T07:09:22.328Z,19.92
2022-10-25T07:11:49.458Z,19.96
2022-10-25T07:14:17.036Z,19.59
2022-10-25T07:16:50.426Z,19.66
2022-10-25T07:19:21.250Z,19.93
2022-10-25T07:21:50.041Z,19.97
2022-10-25T07:24:22.508Z,19.93
2022-10-25T07:26:54.072Z,19.87
2022-10-25T07:29:25.007Z,20.04
2022-10-25T07:32:02.361Z,19.06
2022-10-25T07:34:35.770Z,20.23
2022-10-25T07:37:04.374Z,20.18
2022-10-25T07:39:34.768Z,18.77
2022-10-25T07:42:02.929Z,20.21
2022-10-25T07:44:33.972Z,20.20
2022-10-25T07:47:07.110Z,20.20
2022-10-25T07:49:40.909Z,20.15
2022-10-25T07:52:16.923Z,19.63
2022-10-25T07:54:49.856Z,20.10
2022-10-25T07:57:25.803Z,20.15
2022-10-25T07:59:58.295Z,20.02
2022-10-25T08:02:28.855Z,19.84
2022-10-25T08:04:57.613Z,20.14
2022-10-25T08:07:40.627Z,19.51
2022-10-25T08:10:08.469Z,18.52
2022-10-25T08:12:46.393Z,18.73
2022-10-25T08:15:21.594Z,19.10
2022-10-25T08:17:53.285Z,19.42
2022-10-25T08:20:29.290Z,19.85
2022-10-25T08:23:14.936Z,19.63
2022-10-25T08:25:44.143Z,19.99
2022-10-25T08:28:21.472Z,20.25
2022-10-25T08:30:50.823Z,20.33
2022-10-25T08:33:36.602Z,20.38
2022-10-25T08:36:14.402Z,20.23
2022-10-25T08:39:05.282Z,20.36
2022-10-25T08:41:59.921Z,20.72
2022-10-25T08:45:48.493Z,20.20
2022-10-25T08:48:26.559Z,19.84
2022-10-25T08:51:08.164Z,20.15
2022-10-25T08:53:42.709Z,20.48
2022-10-25T08:56:17.850Z,20.85
2022-10-25T08:59:08.047Z,20.76
2022-10-25T09:01:47.632Z,20.18
2022-10-25T09:04:21.658Z,20.49
2022-10-25T09:07:19.937Z,19.65
2022-10-25T09:10:01.319Z,20.35
2022-10-25T09:12:47.389Z,20.96
2022-10-25T09:15:48.119Z,20.62
2022-10-25T09:18:25.549Z,20.34
2022-10-25T09:20:59.754Z,20.61
2022-10-25T09:23:41.244Z,20.73
2022-10-25T09:26:27.096Z,19.52
2022-10-25T09:29:15.729Z,20.69
2022-10-25T09:32:00.975Z,19.64
2022-10-25T09:34:39.986Z,19.80
2022-10-25T09:37:51.847Z,20.66
2022-10-25T09:40:24.663Z,21.15
2022-10-25T09:43:31.592Z,19.42
2022-10-25T09:46:06.688Z,20.69
2022-10-25T09:48:49.718Z,20.00
2022-10-25T09:51:35.007Z,21.07
2022-10-25T09:54:25.421Z,20.73
2022-10-25T09:57:02.829Z,21.05
2022-10-25T09:59:41.134Z,19.95
2022-10-25T10:02:23.908Z,19.96
2022-10-25T10:05:10.107Z,19.97
2022-10-25T10:07:47.552Z,20.11
2022-10-25T10:10:31.540Z,21.00
2022-10-25T10:13:06.717Z,21.53
2022-10-25T10:16:03.730Z,21.03
2022-10-25T10:18:37.864Z,21.32
2022-10-25T10:21:07.440Z,22.03
2022-10-25T10:23:57.943Z,22.19
2022-10-25T10:26:58.766Z,22.49
2022-10-25T10:29:31.013Z,22.21
2022-10-25T10:32:30.564Z,21.49
2022-10-25T10:35:03.224Z,21.38
2022-10-25T10:37:42.712Z,23.10
2022-10-25T10:40:31.111Z,21.61
2022-10-25T10:43:27.167Z,21.89
2022-10-25T10:46:03.732Z,22.98
2022-10-25T10:48:46.235Z,23.52
2022-10-25T10:51:42.572Z,23.34
2022-10-25T10:54:49.899Z,22.96
2022-10-25T10:57:54.287Z,22.50
2022-10-25T11:00:37.268Z,22.92
2022-10-25T11:03:59.514Z,23.62
2022-10-25T11:06:50.427Z,22.14
2022-10-25T11:09:29.764Z,23.49
2022-10-25T11:12:19.706Z,21.81
2022-10-25T11:15:07.514Z,22.93
2022-10-25T11:17:48.562Z,22.26
2022-10-25T11:21:18.294Z,23.04
2022-10-25T11:24:10.275Z,23.24
2022-10-25T11:30:15.634Z,22.31
2022-10-25T11:33:11.236Z,23.09
2022-10-25T11:35:48.894Z,21.52
2022-10-25T11:38:34.374Z,23.09
2022-10-25T11:41:52.317Z,22.25
2022-10-25T11:44:46.410Z,22.77
2022-10-25T11:47:35.857Z,23.11
2022-10-25T11:50:19.935Z,22.77
2022-10-25T11:53:16.861Z,23.09
2022-10-25T11:56:20.668Z,23.09
2022-10-25T11:59:38.070Z,23.12
2022-10-25T12:02:40.435Z,22.99
2022-10-25T12:05:27.668Z,23.13
2022-10-25T12:08:32.837Z,23.10
2022-10-25T12:11:15.126Z,21.73
2022-10-25T12:14:01.643Z,23.12
2022-10-25T12:16:52.035Z,22.96
2022-10-25T12:19:33.107Z,22.45
2022-10-25T12:22:16.649Z,21.84
2022-10-25T12:25:09.704Z,22.50
2022-10-25T12:28:01.091Z,22.92
2022-10-25T12:30:50.662Z,22.95
2022-10-25T12:33:44.478Z,23.30
2022-10-25T12:36:42.033Z,22.06
2022-10-25T12:39:28.235Z,22.70
2022-10-25T12:42:39.827Z,22.94
2022-10-25T12:45:29.702Z,22.97
2022-10-25T12:48:09.197Z,22.60
2022-10-25T12:51:18.104Z,22.68
2022-10-25T12:54:09.832Z,23.39
2022-10-25T12:57:05.682Z,23.35
2022-10-25T12:59:53.814Z,23.37
2022-10-25T13:02:48.377Z,23.38
2022-10-25T13:05:49.705Z,22.15
2022-10-25T13:08:35.288Z,22.95
2022-10-25T13:11:08.547Z,23.41
2022-10-25T13:13:41.712Z,23.04
2022-10-25T13:16:11.433Z,23.52
2022-10-25T13:18:42.783Z,23.16
2022-10-25T13:21:14.737Z,23.60
2022-10-25T13:24:01.056Z,22.97
2022-10-25T13:26:32.093Z,23.04
2022-10-25T13:29:25.822Z,22.39
2022-10-25T13:32:10.331Z,23.61
2022-10-25T13:34:43.799Z,22.68
2022-10-25T13:37:32.926Z,23.67
2022-10-25T13:42:59.078Z,23.08
2022-10-25T13:45:41.478Z,22.65
2022-10-25T13:48:31.405Z,23.86
2022-10-25T13:51:12.707Z,22.56
2022-10-25T13:53:43.951Z,23.84
2022-10-25T13:56:48.210Z,22.86
2022-10-25T14:03:11.807Z,23.89
2022-10-25T14:06:03.640Z,23.99
2022-10-25T14:08:52.316Z,23.39
2022-10-25T14:11:38.799Z,22.94
2022-10-25T14:14:30.215Z,23.56
2022-10-25T14:17:56.439Z,22.57
2022-10-25T14:20:46.731Z,24.07
2022-10-25T14:23:24.357Z,23.48
2022-10-25T14:26:15.435Z,23.19
2022-10-25T14:28:51.505Z,22.87
2022-10-25T14:31:26.231Z,23.50
2022-10-25T14:33:58.365Z,23.93
2022-10-25T14:36:41.901Z,22.92
2022-10-25T14:39:31.059Z,23.20
2022-10-25T14:42:12.298Z,22.81
2022-10-25T14:45:21.436Z,23.16
2022-10-25T14:47:50.956Z,23.71
2022-10-25T14:50:29.899Z,22.78
2022-10-25T14:53:09.200Z,22.74
2022-10-25T14:55:42.062Z,22.88
2022-10-25T14:58:17.431Z,23.93
2022-10-25T15:01:13.199Z,23.94
2022-10-25T15:04:03.164Z,23.10
2022-10-25T15:06:39.236Z,23.44
2022-10-25T15:09:43.364Z,23.92
2022-10-25T15:12:13.003Z,23.92
2022-10-25T15:14:43.660Z,23.44
2022-10-25T15:17:52.585Z,23.54
2022-10-25T15:20:25.190Z,23.93
2022-10-25T15:23:03.656Z,23.86
2022-10-25T15:25:39.041Z,23.44
2022-10-25T15:28:33.154Z,23.81
2022-10-25T15:31:07.913Z,23.42
2022-10-25T15:33:54.367Z,23.87
2022-10-25T15:36:34.146Z,22.57
2022-10-25T15:39:16.882Z,22.77
2022-10-25T15:42:10.475Z,22.45
2022-10-25T15:44:51.345Z,22.57
2022-10-25T15:47:55.512Z,22.79
2022-10-25T15:50:23.551Z,22.69
2022-10-25T15:52:54.599Z,23.49
2022-10-25T15:55:33.411Z,23.03
2022-10-25T15:58:09.790Z,23.38
2022-10-25T16:00:41.017Z,23.36
2022-10-25T16:03:11.072Z,23.36
2022-10-25T16:05:40.197Z,23.31
2022-10-25T16:08:08.735Z,23.00
2022-10-25T16:10:38.881Z,22.63
2022-10-25T16:13:13.753Z,22.15
2022-10-25T16:15:42.426Z,22.72
2022-10-25T16:18:20.025Z,22.87
2022-10-25T16:20:50.313Z,22.06
2022-10-25T16:23:19.971Z,22.65
2022-10-25T16:25:53.160Z,21.79
2022-10-25T16:28:26.683Z,21.47
2022-10-25T16:30:56.543Z,22.76
2022-10-25T16:33:37.190Z,22.88
2022-10-25T16:36:04.799Z,21.98
2022-10-25T16:39:16.730Z,22.79
2022-10-25T16:42:05.209Z,22.33
2022-10-25T16:44:41.633Z,22.07
2022-10-25T16:47:30.489Z,22.67
2022-10-25T16:50:27.486Z,22.63
2022-10-25T16:53:38.250Z,22.30
2022-10-25T16:56:15.290Z,22.03
2022-10-25T16:59:06.772Z,22.51
2022-10-25T17:02:13.772Z,21.97
2022-10-25T17:04:47.727Z,21.93
2022-10-25T17:07:21.101Z,22.01
2022-10-25T17:09:58.889Z,21.04
2022-10-25T17:13:14.612Z,22.37
2022-10-25T17:16:13.580Z,21.84
2022-10-25T17:18:44.001Z,21.84
2022-10-25T17:21:19.773Z,21.76
2022-10-25T17:23:53.318Z,22.24
2022-10-25T17:26:23.620Z,21.48
2022-10-25T17:28:51.003Z,21.52
2022-10-25T17:31:18.052Z,22.23
2022-10-25T17:33:58.721Z,21.56
2022-10-25T17:36:29.238Z,20.99
2022-10-25T17:38:56.117Z,22.13
2022-10-25T17:41:23.239Z,21.63
2022-10-25T17:43:56.069Z,21.61
2022-10-25T17:46:29.301Z,22.11
2022-10-25T17:49:05.333Z,21.23
2022-10-25T17:51:46.137Z,21.65
2022-10-25T17:54:19.006Z,20.71
2022-10-25T17:57:05.899Z,20.53
2022-10-25T17:59:45.860Z,21.24
2022-10-25T18:02:33.772Z,21.11
2022-10-25T18:05:19.874Z,20.41
2022-10-25T18:08:19.152Z,21.85
2022-10-25T18:10:46.186Z,21.66
2022-10-25T18:13:14.312Z,21.34
2022-10-25T18:15:41.522Z,21.61
2022-10-25T18:18:15.259Z,21.59
2022-10-25T18:20:51.533Z,21.18
2022-10-25T18:23:30.062Z,21.06
2022-10-25T18:25:58.866Z,21.15
2022-10-25T18:28:32.370Z,21.63
2022-10-25T18:31:14.082Z,20.94
2022-10-25T18:33:51.666Z,21.36
2022-10-25T18:39:51.032Z,21.46
2022-10-25T18:42:20.561Z,21.59
2022-10-25T18:45:18.271Z,20.94
2022-10-25T18:47:49.777Z,21.48
2022-10-25T18:50:16.978Z,21.21
2022-10-25T18:52:46.516Z,21.39
2022-10-25T18:55:28.931Z,21.43
2022-10-25T18:57:56.305Z,21.29
2022-10-25T19:00:47.966Z,21.30
2022-10-25T19:04:27.039Z,21.36
2022-10-25T19:07:16.428Z,20.06
2022-10-25T19:15:29.902Z,21.38
2022-10-25T19:17:59.314Z,21.24
2022-10-25T19:20:37.340Z,19.94
2022-10-25T19:23:15.560Z,20.41
2022-10-25T19:25:57.544Z,20.74
2022-10-25T19:28:26.096Z,21.18
2022-10-25T19:31:08.842Z,20.57
2022-10-25T19:33:44.675Z,20.25
2022-10-25T19:36:23.313Z,21.18
2022-10-25T19:38:51.054Z,20.23
2022-10-25T19:41:23.423Z,20.48
2022-10-25T19:43:51.826Z,19.59
2022-10-25T19:46:28.037Z,19.89
2022-10-25T19:49:00.636Z,20.72
2022-10-25T19:51:53.675Z,20.93
2022-10-25T19:54:22.643Z,19.73
2022-10-25T19:56:53.226Z,20.63
2022-10-25T19:59:24.840Z,20.26
2022-10-25T20:01:53.046Z,20.77
2022-10-25T20:04:27.234Z,20.35
2022-10-25T20:06:59.598Z,20.45
2022-10-25T20:09:28.358Z,20.86
2022-10-25T20:12:03.778Z,19.74
2022-10-25T20:14:45.633Z,19.96
2022-10-25T20:17:13.703Z,20.35
2022-10-25T20:19:40.957Z,20.20
2022-10-25T20:22:07.980Z,19.76
2022-10-25T20:24:42.922Z,20.67
2022-10-25T20:27:18.766Z,19.22
2022-10-25T20:29:51.916Z,20.18
2022-10-25T20:32:30.818Z,19.60
2022-10-25T20:35:07.999Z,20.23
2022-10-25T20:37:34.917Z,20.66
2022-10-25T20:40:05.260Z,19.72
2022-10-25T20:42:35.574Z,20.54
2022-10-25T20:45:06.875Z,19.16
2022-10-25T20:47:34.923Z,20.09
2022-10-25T20:50:03.887Z,20.49
2022-10-25T20:52:34.526Z,19.52
2022-10-25T20:55:04.805Z,19.98
2022-10-25T20:57:34.072Z,20.41
2022-10-25T21:00:01.211Z,19.94
2022-10-25T21:02:30.259Z,20.39
2022-10-25T21:05:02.380Z,20.03
2022-10-25T21:07:49.894Z,19.92
2022-10-25T21:10:18.101Z,19.52
2022-10-25T21:12:50.836Z,20.35
2022-10-25T21:15:17.868Z,19.29
2022-10-25T21:17:49.645Z,19.87
2022-10-25T21:20:23.061Z,20.21
2022-10-25T21:22:50.620Z,19.53
2022-10-25T21:25:18.161Z,19.20
2022-10-25T21:27:46.243Z,18.97
2022-10-25T21:30:16.374Z,19.29
2022-10-25T21:32:49.682Z,20.18
2022-10-25T21:35:26.773Z,18.79
2022-10-25T21:38:00.822Z,19.25
2022-10-25T21:40:31.385Z,19.32
2022-10-25T21:42:58.743Z,19.94
2022-10-25T21:45:26.993Z,19.53
2022-10-25T21:47:54.966Z,18.96
2022-10-25T21:50:25.844Z,18.63
2022-10-25T21:52:55.220Z,19.75
2022-10-25T21:55:22.792Z,19.79
2022-10-25T21:57:51.909Z,18.93
2022-10-25T22:00:26.715Z,19.68
2022-10-25T22:02:56.441Z,18.35
2022-10-25T22:05:27.269Z,19.10
2022-10-25T22:08:04.868Z,18.78
2022-10-25T22:10:32.882Z,19.30
2022-10-25T22:13:04.064Z,19.32
2022-10-25T22:15:34.682Z,19.23
2022-10-25T22:18:04.503Z,19.79
2022-10-25T22:20:31.617Z,19.61
2022-10-25T22:23:01.905Z,18.93
2022-10-25T22:25:28.571Z,19.21
2022-10-25T22:27:56.962Z,19.12
2022-10-25T22:30:29.596Z,19.60
2022-10-25T22:32:58.910Z,18.94
2022-10-25T22:35:36.763Z,19.43
2022-10-25T22:38:05.790Z,17.99
2022-10-25T22:40:35.238Z,18.93
2022-10-25T22:43:06.529Z,19.30
2022-10-25T22:45:36.021Z,19.26
2022-10-25T22:48:06.765Z,19.29
2022-10-25T22:50:33.940Z,19.28
2022-10-25T22:53:03.687Z,19.29
2022-10-25T22:55:36.313Z,19.12
2022-10-25T22:58:05.785Z,18.07
2022-10-25T23:00:35.184Z,19.24
2022-10-25T23:03:03.171Z,18.49
2022-10-25T23:05:32.072Z,18.89
2022-10-25T23:07:58.639Z,19.11
2022-10-25T23:10:25.360Z,18.83
2022-10-25T23:12:52.263Z,19.17
2022-10-25T23:15:19.275Z,19.22
2022-10-25T23:20:17.651Z,19.16
2022-10-25T23:22:47.800Z,18.66
2022-10-25T23:25:14.796Z,19.00
2022-10-25T23:27:41.400Z,19.29
2022-10-25T23:30:11.195Z,19.15
2022-10-25T23:32:41.977Z,19.07
2022-10-25T23:35:12.144Z,19.39
2022-10-25T23:37:42.234Z,19.23
2022-10-25T23:40:09.670Z,18.52
2022-10-25T23:42:36.472Z,19.29
2022-10-25T23:45:05.449Z,18.96
2022-10-25T23:47:32.483Z,18.96
2022-10-25T23:50:02.333Z,19.08
2022-10-25T23:52:38.550Z,18.78
2022-10-25T23:55:08.034Z,18.46
2022-10-25T23:57:36.793Z,18.91
